createdAt,value
2022-10-25T00:02:36.797Z,3.80
2022-10-25T00:08:40.605Z,5.18
2022-10-25T00:14:44.025Z,3.28
2022-10-25T00:20:48.768Z,6.22
2022-10-25T00:26:52.162Z,3.08
2022-10-25T00:32:55.729Z,3.08
2022-10-25T00:39:00.681Z,2.08
2022-10-25T00:45:07.513Z,1.67
2022-10-25T00:51:11.101Z,3.08
2022-10-25T00:57:18.745Z,2.60
2022-10-25T01:03:24.643Z,2.25
2022-10-25T01:09:29.952Z,2.45
2022-10-25T01:15:37.522Z,1.15
2022-10-25T01:21:47.311Z,2.13
2022-10-25T01:34:08.224Z,1.98
2022-10-25T01:40:19.894Z,4.10
2022-10-25T01:46:27.719Z,2.90
2022-10-25T01:52:32.600Z,3.03
2022-10-25T01:58:40.618Z,2.75
2022-10-25T02:04:49.429Z,3.95
2022-10-25T02:11:00.112Z,3.38
2022-10-25T02:17:06.219Z,4.22
2022-10-25T02:23:09.647Z,3.45
2022-10-25T02:29:15.611Z,4.72
2022-10-25T02:35:20.826Z,3.15
2022-10-25T02:41:24.305Z,2.53
2022-10-25T02:47:29.142Z,1.58
2022-10-25T02:53:33.107Z,4.50
2022-10-25T02:59:36.843Z,4.80
2022-10-25T03:05:41.672Z,1.95
2022-10-25T03:11:47.778Z,5.40
2022-10-25T03:17:51.699Z,2.38
2022-10-25T03:23:56.458Z,2.45
2022-10-25T03:29:59.983Z,2.35
2022-10-25T03:36:06.580Z,4.90
2022-10-25T03:42:11.303Z,3.53
2022-10-25T03:48:14.713Z,4.07
2022-10-25T03:54:18.059Z,2.08
2022-10-25T04:00:24.185Z,3.58
2022-10-25T04:06:27.610Z,3.30
2022-10-25T04:12:30.985Z,4.88
2022-10-25T04:18:37.054Z,2.75
2022-10-25T04:24:40.723Z,3.10
2022-10-25T04:30:44.214Z,3.90
2022-10-25T04:36:48.985Z,4.90
2022-10-25T04:42:52.628Z,4.07
2022-10-25T04:48:57.844Z,4.75
2022-10-25T04:55:02.785Z,4.32
2022-10-25T05:01:07.173Z,6.53
2022-10-25T05:07:10.641Z,6.22
2022-10-25T05:13:15.486Z,4.65
2022-10-25T05:19:18.875Z,6.40
2022-10-25T05:25:24.190Z,5.20
2022-10-25T05:31:29.980Z,8.35
2022-10-25T05:37:33.652Z,5.68
2022-10-25T05:43:37.381Z,4.93
2022-10-25T05:49:42.996Z,6.55
2022-10-25T05:56:00.956Z,4.82
2022-10-25T06:02:04.893Z,6.35
2022-10-25T06:08:12.747Z,7.50
2022-10-25T06:14:16.511Z,6.72
2022-10-25T06:20:21.746Z,6.82
2022-10-25T06:26:30.455Z,6.85
2022-10-25T06:32:34.034Z,8.05
2022-10-25T06:38:37.427Z,8.82
2022-10-25T06:44:43.538Z,8.13
2022-10-25T06:50:49.910Z,5.88
2022-10-25T06:56:56.176Z,5.15
2022-10-25T07:03:03.591Z,7.38
2022-10-25T07:09:09.363Z,4.53
2022-10-25T07:15:14.406Z,7.55
2022-10-25T07:21:23.012Z,5.75
2022-10-25T07:27:28.642Z,4.50
2022-10-25T07:33:34.677Z,5.82
2022-10-25T07:39:39.594Z,5.22
2022-10-25T07:45:43.246Z,4.78
2022-10-25T07:51:46.884Z,3.55
2022-10-25T07:57:51.720Z,5.15
2022-10-25T08:03:57.861Z,5.57
2022-10-25T08:10:01.219Z,4.82
2022-10-25T08:16:10.840Z,3.75
2022-10-25T08:22:14.282Z,6.05
2022-10-25T08:28:18.094Z,6.65
2022-10-25T08:34:27.464Z,2.60
2022-10-25T08:40:38.910Z,4.60
2022-10-25T08:46:44.512Z,4.70
2022-10-25T08:52:54.034Z,3.83
2022-10-25T08:58:58.606Z,5.20
2022-10-25T09:05:02.263Z,4.05
2022-10-25T09:11:14.196Z,3.78
2022-10-25T09:17:24.198Z,3.50
2022-10-25T09:23:30.612Z,5.70
2022-10-25T09:29:42.095Z,4.63
2022-10-25T09:35:47.588Z,3.40
2022-10-25T09:41:55.183Z,5.13
2022-10-25T09:48:10.442Z,3.17
2022-10-25T09:54:17.302Z,3.60
2022-10-25T10:00:21.378Z,4.80
2022-10-25T10:06:28.827Z,4.20
2022-10-25T10:12:40.330Z,2.83
2022-10-25T10:18:50.036Z,4.70
2022-10-25T10:25:01.009Z,5.57
2022-10-25T10:31:09.224Z,4.45
2022-10-25T10:37:19.039Z,3.08
2022-10-25T10:43:29.794Z,2.92
2022-10-25T10:49:39.285Z,2.83
2022-10-25T10:55:50.457Z,2.97
2022-10-25T11:01:56.591Z,2.70
2022-10-25T11:08:03.850Z,3.92
2022-10-25T11:14:11.865Z,3.83
2022-10-25T11:20:25.099Z,2.78
2022-10-25T11:26:37.860Z,3.95
2022-10-25T11:32:55.381Z,2.80
2022-10-25T11:39:15.157Z,1.80
2022-10-25T11:45:49.976Z,5.05
2022-10-25T11:52:09.186Z,3.03
2022-10-25T11:58:20.418Z,3.40
2022-10-25T12:04:28.684Z,2.72
2022-10-25T12:10:37.020Z,2.85
2022-10-25T12:16:42.728Z,3.65
2022-10-25T12:22:47.558Z,6.43
2022-10-25T12:28:51.819Z,2.33
2022-10-25T12:34:57.258Z,2.78
2022-10-25T12:41:02.727Z,4.00
2022-10-25T12:47:19.274Z,3.78
2022-10-25T12:53:34.324Z,1.17
2022-10-25T12:59:46.604Z,2.50
2022-10-25T13:06:03.632Z,2.65
2022-10-25T13:12:09.399Z,3.20
2022-10-25T13:18:27.391Z,1.60
2022-10-25T13:24:41.154Z,1.75
2022-10-25T13:30:46.296Z,1.95
2022-10-25T13:36:51.796Z,2.25
2022-10-25T13:43:03.520Z,3.28
2022-10-25T13:49:23.953Z,2.60
2022-10-25T13:55:29.359Z,2.40
2022-10-25T14:01:57.542Z,3.97
2022-10-25T14:08:18.543Z,3.78
2022-10-25T14:14:26.344Z,2.97
2022-10-25T14:20:31.060Z,2.53
2022-10-25T14:26:36.113Z,2.20
2022-10-25T14:32:39.552Z,1.77
2022-10-25T14:38:52.670Z,2.20
2022-10-25T14:44:57.424Z,3.33
2022-10-25T14:51:02.602Z,3.17
2022-10-25T14:57:07.207Z,2.33
2022-10-25T15:03:17.768Z,2.58
2022-10-25T15:09:42.808Z,2.13
2022-10-25T15:15:47.177Z,4.20
2022-10-25T15:21:53.210Z,2.25
2022-10-25T15:27:56.735Z,4.82
2022-10-25T15:34:00.881Z,4.85
2022-10-25T15:40:16.768Z,3.28
2022-10-25T15:46:24.926Z,2.55
2022-10-25T15:52:28.327Z,3.20
2022-10-25T15:58:35.532Z,3.70
2022-10-25T16:04:38.959Z,2.95
2022-10-25T16:10:42.358Z,3.55
2022-10-25T16:16:47.230Z,3.28
2022-10-25T16:22:51.093Z,3.63
2022-10-25T16:28:54.631Z,4.32
2022-10-25T16:34:59.476Z,4.72
2022-10-25T16:41:03.134Z,4.15
2022-10-25T16:47:06.633Z,3.05
2022-10-25T16:53:13.182Z,4.93
2022-10-25T16:59:16.736Z,5.10
2022-10-25T17:05:20.651Z,3.72
2022-10-25T17:11:25.381Z,4.85
2022-10-25T17:17:28.714Z,5.35
2022-10-25T17:23:32.073Z,4.80
2022-10-25T17:29:37.012Z,4.78
2022-10-25T17:35:42.587Z,6.63
2022-10-25T17:41:45.960Z,6.53
2022-10-25T17:47:51.058Z,7.22
2022-10-25T17:53:55.210Z,4.38
2022-10-25T17:59:58.877Z,6.25
2022-10-25T18:06:03.870Z,9.73
2022-10-25T18:12:09.655Z,5.70
2022-10-25T18:18:13.218Z,5.78
2022-10-25T18:24:17.957Z,5.45
2022-10-25T18:30:22.297Z,5.45
2022-10-25T18:36:28.763Z,7.43
2022-10-25T18:42:47.004Z,6.90
2022-10-25T18:48:56.030Z,5.35
2022-10-25T18:54:59.523Z,7.78
2022-10-25T19:01:08.035Z,8.05
2022-10-25T19:07:12.991Z,5.78
2022-10-25T19:13:19.392Z,11.30
2022-10-25T19:19:22.866Z,7.22
2022-10-25T19:25:30.437Z,8.35
2022-10-25T19:31:33.825Z,7.22
2022-10-25T19:37:39.990Z,7.07
2022-10-25T19:43:44.852Z,7.10
2022-10-25T19:49:48.247Z,6.30
2022-10-25T19:55:59.670Z,5.63
2022-10-25T20:02:07.944Z,5.70
2022-10-25T20:08:11.393Z,6.68
2022-10-25T20:14:15.208Z,7.07
2022-10-25T20:20:19.989Z,8.48
2022-10-25T20:26:25.064Z,7.00
2022-10-25T20:32:33.764Z,7.55
2022-10-25T20:38:39.121Z,9.70
2022-10-25T20:44:42.510Z,6.43
2022-10-25T20:50:49.671Z,10.68
2022-10-25T20:56:54.645Z,6.38
2022-10-25T21:02:58.034Z,5.47
2022-10-25T21:09:01.437Z,6.57
2022-10-25T21:15:09.554Z,6.82
2022-10-25T21:21:18.899Z,7.57
2022-10-25T21:27:22.412Z,5.95
2022-10-25T21:33:27.325Z,5.07
2022-10-25T21:39:30.675Z,6.13
2022-10-25T21:45:34.066Z,6.47
2022-10-25T21:51:38.788Z,7.68
2022-10-25T21:57:42.421Z,6.32
2022-10-25T22:03:45.864Z,7.45
2022-10-25T22:09:50.623Z,5.03
2022-10-25T22:15:57.932Z,6.40
2022-10-25T22:22:01.434Z,4.85
2022-10-25T22:28:06.480Z,8.13
2022-10-25T22:34:11.045Z,7.13
2022-10-25T22:40:14.698Z,7.60
2022-10-25T22:46:22.297Z,6.65
2022-10-25T22:52:26.319Z,4.78
2022-10-25T22:58:32.480Z,7.20
2022-10-25T23:04:37.324Z,10.60
2022-10-25T23:10:40.756Z,6.82
2022-10-25T23:16:44.182Z,4.75
2022-10-25T23:22:49.121Z,8.45
2022-10-25T23:28:52.661Z,8.23
2022-10-25T23:34:57.062Z,11.52
2022-10-25T23:41:04.156Z,7.90
2022-10-25T23:47:07.564Z,5.50
2022-10-25T23:53:11.918Z,6.55
2022-10-25T23:59:16.750Z,7.68
